createdAt,value
2023-11-29T00:02:56.657Z,98662.00
2023-11-29T00:05:58.965Z,98651.84
2023-11-29T00:09:01.233Z,98667.28
2023-11-29T00:12:03.631Z,98681.75
2023-11-29T00:15:06.681Z,98657.38
2023-11-29T00:18:09.030Z,98670.09
2023-11-29T00:21:11.981Z,98685.97
2023-11-29T00:24:14.274Z,98668.84
2023-11-29T00:27:17.561Z,98687.38
2023-11-29T00:30:19.765Z,98695.34
2023-11-29T00:33:22.197Z,98712.00
2023-11-29T00:36:25.431Z,98709.25
2023-11-29T00:39:27.670Z,98714.00
2023-11-29T00:42:30.014Z,98711.38
2023-11-29T00:45:32.205Z,98709.94
2023-11-29T00:48:34.599Z,98725.00
2023-11-29T00:51:36.854Z,98742.00
2023-11-29T00:54:39.220Z,98750.81
2023-11-29T00:57:41.454Z,98755.63
2023-11-29T01:00:43.835Z,98770.03
2023-11-29T01:03:46.146Z,98776.63
2023-11-29T01:06:48.376Z,98791.84
2023-11-29T01:09:50.626Z,98810.06
2023-11-29T01:12:52.887Z,98808.56
2023-11-29T01:15:55.101Z,98799.78
2023-11-29T01:18:58.960Z,98780.88
2023-11-29T01:22:01.813Z,98785.84
2023-11-29T01:25:04.404Z,98778.50
2023-11-29T01:28:09.563Z,98790.69
2023-11-29T01:31:13.873Z,98783.56
2023-11-29T01:34:16.224Z,98794.16
2023-11-29T01:37:18.445Z,98793.00
2023-11-29T01:40:21.326Z,98773.63
2023-11-29T01:43:25.029Z,98791.38
2023-11-29T01:46:29.806Z,98797.84
2023-11-29T01:49:32.115Z,98808.44
2023-11-29T01:52:35.544Z,98818.34
2023-11-29T01:55:38.240Z,98809.34
2023-11-29T01:58:40.457Z,98801.53
2023-11-29T02:01:42.764Z,98815.47
2023-11-29T02:04:45.806Z,98814.06
2023-11-29T02:07:48.249Z,98809.13
2023-11-29T02:10:51.822Z,98823.03
2023-11-29T02:13:54.178Z,98818.31
2023-11-29T02:16:56.394Z,98823.63
2023-11-29T02:19:58.652Z,98829.41
2023-11-29T02:23:17.619Z,98846.91
2023-11-29T02:26:19.811Z,98859.78
2023-11-29T02:29:22.276Z,98877.59
2023-11-29T02:32:24.562Z,98865.94
2023-11-29T02:35:26.880Z,98884.22
2023-11-29T02:38:29.160Z,98881.00
2023-11-29T02:41:31.356Z,98887.22
2023-11-29T02:44:33.548Z,98885.97
2023-11-29T02:47:35.894Z,98882.13
2023-11-29T02:50:38.162Z,98890.22
2023-11-29T02:53:40.495Z,98912.53
2023-11-29T02:56:42.960Z,98909.19
2023-11-29T02:59:47.069Z,98912.72
2023-11-29T03:02:49.473Z,98928.47
2023-11-29T03:05:51.868Z,98942.94
2023-11-29T03:08:54.151Z,98946.25
2023-11-29T03:11:56.334Z,98953.69
2023-11-29T03:14:58.852Z,98959.41
2023-11-29T03:18:01.170Z,98966.59
2023-11-29T03:21:03.670Z,98969.06
2023-11-29T03:24:06.322Z,98973.47
2023-11-29T03:27:08.843Z,98966.25
2023-11-29T03:30:11.753Z,98956.41
2023-11-29T03:33:14.123Z,98945.00
2023-11-29T03:36:17.123Z,98974.00
2023-11-29T03:39:19.330Z,98975.53
2023-11-29T03:42:21.526Z,98979.06
2023-11-29T03:45:23.744Z,98982.81
2023-11-29T03:48:25.939Z,99002.94
2023-11-29T03:51:32.122Z,99004.34
2023-11-29T03:54:40.542Z,98996.56
2023-11-29T03:57:42.752Z,99009.91
2023-11-29T04:00:44.961Z,99018.69
2023-11-29T04:03:47.174Z,99025.09
2023-11-29T04:06:49.862Z,99039.78
2023-11-29T04:09:58.346Z,99023.44
2023-11-29T04:13:07.551Z,99032.44
2023-11-29T04:16:19.703Z,99060.00
2023-11-29T04:19:21.940Z,99064.34
2023-11-29T04:22:24.155Z,99047.06
2023-11-29T04:25:26.313Z,99079.03
2023-11-29T04:28:28.536Z,99075.50
2023-11-29T04:31:31.410Z,99088.09
2023-11-29T04:34:38.098Z,99061.81
2023-11-29T04:37:47.361Z,99072.88
2023-11-29T04:40:49.748Z,99084.28
2023-11-29T04:43:52.150Z,99099.88
2023-11-29T04:46:54.468Z,99105.72
2023-11-29T04:49:56.896Z,99102.28
2023-11-29T04:52:59.074Z,99119.94
2023-11-29T04:56:01.290Z,99118.72
2023-11-29T04:59:03.461Z,99108.63
2023-11-29T05:02:06.314Z,99101.88
2023-11-29T05:05:09.135Z,99099.47
2023-11-29T05:08:11.362Z,99102.38
2023-11-29T05:11:13.574Z,99093.91
2023-11-29T05:14:17.092Z,99096.31
2023-11-29T05:17:19.986Z,99106.91
2023-11-29T05:20:22.795Z,99108.88
2023-11-29T05:23:26.108Z,99125.84
2023-11-29T05:26:28.380Z,99124.03
2023-11-29T05:29:30.617Z,99133.69
2023-11-29T05:32:33.326Z,99142.50
2023-11-29T05:35:35.658Z,99157.88
2023-11-29T05:38:37.866Z,99165.72
2023-11-29T05:41:40.118Z,99177.00
2023-11-29T05:44:42.360Z,99184.84
2023-11-29T05:47:44.671Z,99185.09
2023-11-29T05:50:46.949Z,99185.09
2023-11-29T05:53:49.147Z,99186.13
2023-11-29T05:56:51.368Z,99189.84
2023-11-29T05:59:56.696Z,99196.94
2023-11-29T06:03:00.908Z,99211.00
2023-11-29T06:06:05.268Z,99218.78
2023-11-29T06:09:09.298Z,99224.06
2023-11-29T06:12:11.448Z,99224.63
2023-11-29T06:15:14.212Z,99227.13
2023-11-29T06:18:17.086Z,99234.91
2023-11-29T06:21:19.502Z,99243.59
2023-11-29T06:24:21.691Z,99242.75
2023-11-29T06:27:23.899Z,99242.34
2023-11-29T06:30:26.080Z,99251.59
2023-11-29T06:33:28.342Z,99246.88
2023-11-29T06:36:35.123Z,99255.63
2023-11-29T06:39:38.953Z,99265.22
2023-11-29T06:42:41.349Z,99279.88
2023-11-29T06:45:43.568Z,99287.44
2023-11-29T06:48:45.798Z,99294.94
2023-11-29T06:51:47.987Z,99293.72
2023-11-29T06:54:50.261Z,99298.09
2023-11-29T06:57:54.737Z,99290.72
2023-11-29T07:00:57.343Z,99293.41
2023-11-29T07:03:59.708Z,99296.78
2023-11-29T07:07:02.173Z,99289.88
2023-11-29T07:10:06.506Z,99310.50
2023-11-29T07:13:08.884Z,99318.06
2023-11-29T07:16:11.309Z,99348.53
2023-11-29T07:19:14.580Z,99344.50
2023-11-29T07:22:17.116Z,99360.53
2023-11-29T07:25:19.250Z,99353.25
2023-11-29T07:28:21.478Z,99361.25
2023-11-29T07:31:24.476Z,99355.91
2023-11-29T07:34:26.702Z,99361.78
2023-11-29T07:37:28.913Z,99355.09
2023-11-29T07:40:31.206Z,99371.97
2023-11-29T07:43:33.401Z,99388.41
2023-11-29T07:46:35.622Z,99394.94
2023-11-29T07:49:37.958Z,99399.22
2023-11-29T07:52:43.367Z,99411.97
2023-11-29T07:55:45.769Z,99412.66
2023-11-29T07:58:47.967Z,99420.75
2023-11-29T08:01:50.325Z,99427.88
2023-11-29T08:04:52.703Z,99431.72
2023-11-29T08:07:56.479Z,99422.03
2023-11-29T08:10:58.642Z,99433.19
2023-11-29T08:14:04.082Z,99438.22
2023-11-29T08:17:06.317Z,99429.69
2023-11-29T08:20:08.984Z,99439.25
2023-11-29T08:23:11.264Z,99449.56
2023-11-29T08:26:13.664Z,99441.63
2023-11-29T08:29:15.852Z,99462.22
2023-11-29T08:32:18.163Z,99454.69
2023-11-29T08:35:20.445Z,99466.31
2023-11-29T08:38:22.751Z,99459.78
2023-11-29T08:41:25.018Z,99464.69
2023-11-29T08:44:27.269Z,99481.56
2023-11-29T08:47:29.624Z,99473.06
2023-11-29T08:50:31.922Z,99484.25
2023-11-29T08:53:40.548Z,99472.44
2023-11-29T08:56:45.454Z,99472.28
2023-11-29T08:59:47.766Z,99486.16
2023-11-29T09:02:50.312Z,99488.97
2023-11-29T09:05:52.996Z,99493.66
2023-11-29T09:08:59.937Z,99497.13
2023-11-29T09:12:02.281Z,99503.06
2023-11-29T09:15:07.029Z,99501.50
2023-11-29T09:18:09.319Z,99514.16
2023-11-29T09:21:11.820Z,99517.03
2023-11-29T09:24:14.071Z,99527.94
2023-11-29T09:27:16.244Z,99525.09
2023-11-29T09:30:18.601Z,99537.66
2023-11-29T09:33:22.584Z,99537.63
2023-11-29T09:36:24.918Z,99529.66
2023-11-29T09:39:29.368Z,99538.69
2023-11-29T09:42:32.159Z,99530.88
2023-11-29T09:45:34.492Z,99528.28
2023-11-29T09:48:37.129Z,99536.88
2023-11-29T09:51:39.461Z,99519.09
2023-11-29T09:54:41.890Z,99542.19
2023-11-29T09:57:45.281Z,99542.34
2023-11-29T10:00:47.561Z,99538.44
2023-11-29T10:04:01.792Z,99548.00
2023-11-29T10:07:04.258Z,99539.41
2023-11-29T10:10:08.125Z,99549.53
2023-11-29T10:13:10.303Z,99538.59
2023-11-29T10:16:12.581Z,99545.81
2023-11-29T10:19:15.562Z,99548.47
2023-11-29T10:22:18.090Z,99554.50
2023-11-29T10:25:22.110Z,99550.44
2023-11-29T10:28:24.554Z,99555.72
2023-11-29T10:31:28.033Z,99561.75
2023-11-29T10:34:33.669Z,99540.88
2023-11-29T10:37:36.205Z,99544.38
2023-11-29T10:40:40.165Z,99549.97
2023-11-29T10:43:44.161Z,99540.38
2023-11-29T10:46:47.135Z,99555.06
2023-11-29T10:49:54.331Z,99553.38
2023-11-29T10:52:56.603Z,99544.00
2023-11-29T10:55:59.286Z,99549.47
2023-11-29T10:59:23.582Z,99556.84
2023-11-29T11:02:29.414Z,99556.16
2023-11-29T11:05:31.915Z,99535.78
2023-11-29T11:08:37.428Z,99544.78
2023-11-29T11:11:47.549Z,99557.22
2023-11-29T11:14:52.536Z,99562.53
2023-11-29T11:18:07.837Z,99568.22
2023-11-29T11:21:17.667Z,99554.53
2023-11-29T11:24:19.866Z,99564.81
2023-11-29T11:27:40.140Z,99567.47
2023-11-29T11:30:45.900Z,99566.34
2023-11-29T11:33:54.275Z,99566.19
2023-11-29T11:36:56.680Z,99560.19
2023-11-29T11:39:58.982Z,99566.72
2023-11-29T11:43:01.883Z,99577.53
2023-11-29T11:46:04.380Z,99546.16
2023-11-29T11:49:09.691Z,99564.84
2023-11-29T11:52:11.991Z,99565.69
2023-11-29T11:55:16.442Z,99571.28
2023-11-29T11:58:20.296Z,99571.63
2023-11-29T12:01:22.670Z,99564.34
2023-11-29T12:04:25.048Z,99555.09
2023-11-29T12:07:27.659Z,99568.28
2023-11-29T12:10:32.417Z,99564.34
2023-11-29T12:13:35.431Z,99570.03
2023-11-29T12:16:37.626Z,99564.03
2023-11-29T12:19:43.722Z,99578.94
2023-11-29T12:22:47.029Z,99580.00
2023-11-29T12:25:56.901Z,99594.91
2023-11-29T12:29:00.357Z,99590.44
2023-11-29T12:32:06.530Z,99588.69
2023-11-29T12:35:09.781Z,99606.56
2023-11-29T12:38:12.174Z,99603.06
2023-11-29T12:41:14.440Z,99608.28
2023-11-29T12:44:17.299Z,99602.72
2023-11-29T12:47:28.523Z,99593.66
2023-11-29T12:50:31.233Z,99594.91
2023-11-29T12:53:33.866Z,99590.97
2023-11-29T12:56:36.414Z,99601.41
2023-11-29T12:59:39.901Z,99599.34
2023-11-29T13:02:42.266Z,99596.56
2023-11-29T13:05:44.616Z,99606.41
2023-11-29T13:08:47.014Z,99602.00
2023-11-29T13:11:49.207Z,99604.09
2023-11-29T13:14:51.458Z,99602.00
2023-11-29T13:17:53.786Z,99612.31
2023-11-29T13:20:56.109Z,99603.75
2023-11-29T13:23:58.468Z,99606.28
2023-11-29T13:27:01.021Z,99616.81
2023-11-29T13:30:04.172Z,99626.53
2023-11-29T13:33:06.562Z,99621.91
2023-11-29T13:36:09.318Z,99625.72
2023-11-29T13:39:14.316Z,99628.97
2023-11-29T13:42:16.465Z,99639.72
2023-11-29T13:45:18.784Z,99645.16
2023-11-29T13:48:22.004Z,99656.75
2023-11-29T13:51:24.370Z,99646.44
2023-11-29T13:54:26.600Z,99647.34
2023-11-29T13:57:28.917Z,99653.72
2023-11-29T14:00:31.085Z,99644.81
2023-11-29T14:03:40.708Z,99656.88
2023-11-29T14:06:44.285Z,99658.03
2023-11-29T14:09:46.482Z,99664.41
2023-11-29T14:12:48.728Z,99674.06
2023-11-29T14:15:50.919Z,99673.81
2023-11-29T14:18:53.052Z,99668.59
2023-11-29T14:21:55.205Z,99677.19
2023-11-29T14:24:57.565Z,99676.97
2023-11-29T14:27:59.823Z,99687.84
2023-11-29T14:31:03.458Z,99666.19
2023-11-29T14:34:05.691Z,99689.75
2023-11-29T14:37:07.856Z,99672.59
2023-11-29T14:40:10.714Z,99685.19
2023-11-29T14:43:12.968Z,99700.34
2023-11-29T14:46:15.159Z,99708.88
2023-11-29T14:49:23.859Z,99708.28
2023-11-29T14:52:31.156Z,99700.22
2023-11-29T14:55:33.351Z,99724.69
2023-11-29T14:58:35.580Z,99723.97
2023-11-29T15:01:38.404Z,99726.88
2023-11-29T15:04:43.450Z,99736.19
2023-11-29T15:07:45.738Z,99727.25
2023-11-29T15:10:47.970Z,99743.06
2023-11-29T15:13:51.327Z,99731.59
2023-11-29T15:16:53.521Z,99739.44
2023-11-29T15:19:55.691Z,99746.81
2023-11-29T15:22:57.884Z,99737.66
2023-11-29T15:26:00.079Z,99739.88
2023-11-29T15:29:02.350Z,99745.47
2023-11-29T15:32:04.732Z,99751.22
2023-11-29T15:35:08.674Z,99752.31
2023-11-29T15:38:11.172Z,99756.50
2023-11-29T15:41:13.413Z,99756.56
2023-11-29T15:44:15.641Z,99765.63
2023-11-29T15:47:17.909Z,99758.66
2023-11-29T15:50:20.161Z,99760.50
2023-11-29T15:53:22.373Z,99763.22
2023-11-29T15:56:24.512Z,99761.25
2023-11-29T15:59:26.681Z,99754.50
2023-11-29T16:02:29.871Z,99763.97
2023-11-29T16:05:32.141Z,99759.84
2023-11-29T16:08:34.409Z,99760.91
2023-11-29T16:11:36.583Z,99763.72
2023-11-29T16:14:39.388Z,99767.22
2023-11-29T16:17:41.759Z,99771.56
2023-11-29T16:20:44.145Z,99782.84
2023-11-29T16:23:46.370Z,99780.97
2023-11-29T16:26:50.147Z,99790.78
2023-11-29T16:29:52.366Z,99794.84
2023-11-29T16:32:54.874Z,99791.22
2023-11-29T16:35:57.238Z,99797.13
2023-11-29T16:38:59.476Z,99791.66
2023-11-29T16:42:01.759Z,99795.38
2023-11-29T16:45:04.273Z,99790.91
2023-11-29T16:48:06.948Z,99803.97
2023-11-29T16:51:10.222Z,99808.06
2023-11-29T16:54:12.524Z,99806.06
2023-11-29T16:57:14.730Z,99814.03
2023-11-29T17:00:17.534Z,99810.38
2023-11-29T17:03:19.939Z,99808.94
2023-11-29T17:06:22.584Z,99802.19
2023-11-29T17:09:24.912Z,99815.09
2023-11-29T17:12:27.198Z,99821.00
2023-11-29T17:15:29.477Z,99822.44
2023-11-29T17:18:32.726Z,99829.59
2023-11-29T17:21:35.935Z,99828.19
2023-11-29T17:24:38.100Z,99835.53
2023-11-29T17:27:40.379Z,99831.28
2023-11-29T17:30:43.388Z,99823.94
2023-11-29T17:33:45.887Z,99831.06
2023-11-29T17:36:48.776Z,99833.94
2023-11-29T17:39:50.939Z,99837.63
2023-11-29T17:42:55.580Z,99847.00
2023-11-29T17:45:57.879Z,99846.22
2023-11-29T17:49:00.092Z,99838.03
2023-11-29T17:52:02.382Z,99843.75
2023-11-29T17:55:05.210Z,99846.00
2023-11-29T17:58:09.059Z,99842.34
2023-11-29T18:01:11.306Z,99844.16
2023-11-29T18:04:13.639Z,99849.06
2023-11-29T18:07:15.861Z,99851.50
2023-11-29T18:10:18.053Z,99856.41
2023-11-29T18:13:21.939Z,99854.38
2023-11-29T18:16:25.835Z,99857.03
2023-11-29T18:19:28.105Z,99852.13
2023-11-29T18:22:30.779Z,99854.19
2023-11-29T18:25:32.974Z,99861.09
2023-11-29T18:28:35.245Z,99866.03
2023-11-29T18:31:37.530Z,99859.28
2023-11-29T18:34:40.111Z,99846.22
2023-11-29T18:37:42.339Z,99862.94
2023-11-29T18:40:46.071Z,99865.81
2023-11-29T18:43:48.424Z,99870.47
2023-11-29T18:46:50.683Z,99869.44
2023-11-29T18:49:52.871Z,99871.09
2023-11-29T18:52:55.598Z,99866.78
2023-11-29T18:55:59.421Z,99868.44
2023-11-29T18:59:01.703Z,99870.69
2023-11-29T19:02:04.026Z,99879.66
2023-11-29T19:05:07.008Z,99877.19
2023-11-29T19:08:09.283Z,99876.78
2023-11-29T19:11:13.298Z,99884.31
2023-11-29T19:14:15.475Z,99879.22
2023-11-29T19:17:17.761Z,99879.63
2023-11-29T19:20:20.067Z,99887.16
2023-11-29T19:23:31.455Z,99894.69
2023-11-29T19:26:38.503Z,99889.38
2023-11-29T19:29:41.042Z,99900.38
2023-11-29T19:32:44.005Z,99883.63
2023-11-29T19:35:46.252Z,99899.53
2023-11-29T19:38:49.722Z,99891.56
2023-11-29T19:41:52.062Z,99895.19
2023-11-29T19:44:55.344Z,99908.84
2023-11-29T19:47:57.651Z,99911.47
2023-11-29T19:50:59.971Z,99903.91
2023-11-29T19:54:02.285Z,99911.19
2023-11-29T19:57:04.809Z,99912.41
2023-11-29T20:00:07.576Z,99913.81
2023-11-29T20:03:09.942Z,99921.13
2023-11-29T20:06:12.352Z,99912.75
2023-11-29T20:09:16.941Z,99929.06
2023-11-29T20:12:19.901Z,99921.06
2023-11-29T20:15:23.408Z,99921.88
2023-11-29T20:18:27.909Z,99925.31
2023-11-29T20:21:31.463Z,99911.03
2023-11-29T20:24:33.951Z,99916.97
2023-11-29T20:27:36.584Z,99912.88
2023-11-29T20:30:38.770Z,99910.56
2023-11-29T20:33:40.968Z,99918.34
2023-11-29T20:36:43.138Z,99913.84
2023-11-29T20:39:45.324Z,99926.63
2023-11-29T20:42:47.548Z,99910.13
2023-11-29T20:45:49.761Z,99910.50
2023-11-29T20:48:52.086Z,99920.72
2023-11-29T20:51:54.308Z,99909.88
2023-11-29T20:54:56.537Z,99924.28
2023-11-29T20:57:58.740Z,99924.13
2023-11-29T21:01:01.078Z,99932.69
2023-11-29T21:04:03.403Z,99930.03
2023-11-29T21:07:06.175Z,99923.28
2023-11-29T21:10:09.069Z,99922.88
2023-11-29T21:13:12.752Z,99926.34
2023-11-29T21:16:16.476Z,99928.34
2023-11-29T21:19:18.813Z,99921.63
2023-11-29T21:22:21.170Z,99930.75
2023-11-29T21:25:23.315Z,99924.81
2023-11-29T21:28:25.508Z,99919.34
2023-11-29T21:31:28.899Z,99931.13
2023-11-29T21:34:31.705Z,99932.19
2023-11-29T21:37:33.909Z,99936.44
2023-11-29T21:40:36.295Z,99935.19
2023-11-29T21:43:38.504Z,99934.56
2023-11-29T21:46:40.691Z,99927.47
2023-11-29T21:49:42.838Z,99930.25
2023-11-29T21:52:45.045Z,99927.47
2023-11-29T21:55:47.287Z,99920.56
2023-11-29T21:58:49.483Z,99918.91
2023-11-29T22:01:53.438Z,99921.56
2023-11-29T22:04:55.785Z,99920.75
2023-11-29T22:07:57.926Z,99920.16
2023-11-29T22:11:00.632Z,99920.59
2023-11-29T22:14:02.839Z,99913.69
2023-11-29T22:17:05.118Z,99903.31
2023-11-29T22:20:08.930Z,99902.28
2023-11-29T22:23:11.547Z,99886.41
2023-11-29T22:26:13.760Z,99885.38
2023-11-29T22:29:15.970Z,99883.38
2023-11-29T22:32:18.164Z,99880.28
2023-11-29T22:35:20.351Z,99880.50
2023-11-29T22:38:22.574Z,99866.06
2023-11-29T22:41:26.854Z,99871.41
2023-11-29T22:44:29.061Z,99866.94
2023-11-29T22:47:31.676Z,99886.22
2023-11-29T22:50:38.461Z,99885.25
2023-11-29T22:53:40.880Z,99882.00
2023-11-29T22:56:43.164Z,99877.31
2023-11-29T22:59:45.326Z,99878.91
2023-11-29T23:02:47.770Z,99881.66
2023-11-29T23:05:50.236Z,99876.19
2023-11-29T23:08:52.496Z,99881.69
2023-11-29T23:11:54.817Z,99882.09
2023-11-29T23:14:57.026Z,99870.28
2023-11-29T23:17:59.216Z,99870.53
2023-11-29T23:21:01.432Z,99872.56
2023-11-29T23:24:03.932Z,99870.13
2023-11-29T23:27:06.213Z,99865.03
2023-11-29T23:30:08.663Z,99869.94
2023-11-29T23:33:10.948Z,99862.19
2023-11-29T23:36:13.245Z,99846.47
2023-11-29T23:39:15.499Z,99859.09
2023-11-29T23:42:18.593Z,99863.81
2023-11-29T23:45:20.867Z,99871.94
2023-11-29T23:48:23.126Z,99866.59
2023-11-29T23:51:25.434Z,99866.59
2023-11-29T23:54:27.625Z,99869.44
2023-11-29T23:57:29.857Z,99862.97
